Time;durP1;ratioP1;P1;durP2;ratioP2;P2;SDS_P1;SDS_P2;PMS_P1;PMS_P2;Temp;Humidity;BMP_temperature;BMP_pressure;BME280_temperature;BME280_humidity;BME280_pressure;Samples;Min_cycle;Max_cycle;Signal;HPM_P1;HPM_P2
2022/08/23 00:00:37;;;;;;;10.40;7.10;;;;;;;;;;108333;1301;23286;-30
2022/08/23 00:03:03;;;;;;;9.00;7.00;;;;;;;;;;108343;1301;22416;-24
2022/08/23 00:05:30;;;;;;;13.40;8.40;;;;;;;;;;108354;1301;22421;-24
2022/08/23 00:07:55;;;;;;;22.10;19.70;;;;;;;;;;108201;1303;22524;-23
2022/08/23 00:10:21;;;;;;;14.80;9.20;;;;;;;;;;108381;1301;23123;-29
2022/08/23 00:12:47;;;;;;;12.30;7.90;;;;;;;;;;108325;1301;23284;-26
2022/08/23 00:15:13;;;;;;;12.90;8.90;;;;;;;;;;108375;1308;22409;-24
2022/08/23 00:17:40;;;;;;;22.80;18.20;;;;;;;;;;108342;1301;22816;-24
2022/08/23 00:20:07;;;;;;;19.70;17.90;;;;;;;;;;108381;1301;23271;-24
2022/08/23 00:22:32;;;;;;;23.70;10.10;;;;;;;;;;108025;1301;22530;-31
2022/08/23 00:24:58;;;;;;;21.60;13.20;;;;;;;;;;108232;1301;23539;-31
2022/08/23 00:27:23;;;;;;;10.80;8.10;;;;;;;;;;108403;1300;23406;-26
2022/08/23 00:29:49;;;;;;;13.80;9.40;;;;;;;;;;108058;1300;22414;-26
2022/08/23 00:32:16;;;;;;;8.00;6.90;;;;;;;;;;108369;1301;23029;-33
2022/08/23 00:34:41;;;;;;;12.30;7.40;;;;;;;;;;107835;1302;22339;-32
2022/08/23 00:37:07;;;;;;;7.50;6.70;;;;;;;;;;108328;1301;22709;-29
2022/08/23 00:39:33;;;;;;;12.00;7.00;;;;;;;;;;108398;1301;22665;-33
2022/08/23 00:41:59;;;;;;;11.50;7.30;;;;;;;;;;108357;1308;22525;-33
2022/08/23 00:49:25;;;;;;;8.90;7.10;;;;;;;;;;108351;1301;23264;-26
2022/08/23 00:51:57;;;;;;;8.90;7.50;;;;;;;;;;108360;1301;22214;-26
2022/08/23 00:54:23;;;;;;;7.50;6.80;;;;;;;;;;108433;1301;22486;-26
2022/08/23 00:56:49;;;;;;;11.60;7.60;;;;;;;;;;108288;1308;22733;-33
2022/08/23 00:59:14;;;;;;;10.80;7.40;;;;;;;;;;108349;1301;23169;-32
2022/08/23 01:01:41;;;;;;;8.10;6.20;;;;;;;;;;108363;1308;22476;-32
2022/08/23 01:04:07;;;;;;;7.60;6.30;;;;;;;;;;108343;1301;22390;-32
2022/08/23 01:06:33;;;;;;;8.10;6.90;;;;;;;;;;108336;1300;22408;-32
2022/08/23 01:09:01;;;;;;;8.20;6.40;;;;;;;;;;108239;1300;23163;-32
2022/08/23 01:11:32;;;;;;;11.40;7.60;;;;;;;;;;108319;1301;23166;-26
2022/08/23 01:14:00;;;;;;;11.40;9.10;;;;;;;;;;108399;1301;22509;-24
2022/08/23 01:16:27;;;;;;;8.80;7.90;;;;;;;;;;108343;1301;22592;-30
2022/08/23 01:18:53;;;;;;;23.70;8.20;;;;;;;;;;108351;1301;23315;-24
2022/08/23 01:21:22;;;;;;;8.40;7.70;;;;;;;;;;108353;1286;22907;-31
2022/08/23 01:23:50;;;;;;;8.00;7.10;;;;;;;;;;108268;1301;22527;-24
2022/08/23 01:26:16;;;;;;;11.50;7.10;;;;;;;;;;108341;1301;22551;-31
2022/08/23 01:28:42;;;;;;;8.60;7.60;;;;;;;;;;108343;1300;22439;-27
2022/08/23 01:31:08;;;;;;;12.00;7.60;;;;;;;;;;108383;1300;23213;-30
2022/08/23 01:33:34;;;;;;;9.30;7.90;;;;;;;;;;108245;1302;22554;-30
2022/08/23 01:36:00;;;;;;;9.30;7.60;;;;;;;;;;108207;1308;22406;-24
2022/08/23 01:38:26;;;;;;;10.10;8.10;;;;;;;;;;108216;1308;22437;-24
2022/08/23 01:40:53;;;;;;;9.90;9.00;;;;;;;;;;108345;1301;22346;-24
2022/08/23 01:43:20;;;;;;;9.20;8.40;;;;;;;;;;108329;1301;23177;-30
2022/08/23 01:45:46;;;;;;;12.20;8.30;;;;;;;;;;108340;1301;23149;-30
2022/08/23 01:48:11;;;;;;;8.90;6.80;;;;;;;;;;108319;1301;23348;-30
2022/08/23 01:50:37;;;;;;;14.20;8.40;;;;;;;;;;108367;1301;23229;-30
2022/08/23 01:53:03;;;;;;;10.50;7.40;;;;;;;;;;108322;1301;23231;-30
2022/08/23 01:55:29;;;;;;;11.90;7.40;;;;;;;;;;108296;1300;22555;-24
2022/08/23 01:57:55;;;;;;;10.10;7.20;;;;;;;;;;108376;1300;24049;-30
2022/08/23 02:00:24;;;;;;;8.60;7.00;;;;;;;;;;108332;1300;22211;-30
2022/08/23 02:02:50;;;;;;;8.80;7.60;;;;;;;;;;108305;1308;23253;-23
2022/08/23 02:05:16;;;;;;;12.30;8.00;;;;;;;;;;107937;1301;22553;-24
2022/08/23 02:07:41;;;;;;;7.60;6.80;;;;;;;;;;108274;1301;23158;-24
2022/08/23 02:10:07;;;;;;;7.20;6.20;;;;;;;;;;108336;1300;22539;-24
2022/08/23 02:12:32;;;;;;;7.80;6.90;;;;;;;;;;108352;1301;22730;-32
2022/08/23 02:14:58;;;;;;;5.10;4.70;;;;;;;;;;108245;1308;22417;-32
2022/08/23 02:17:23;;;;;;;7.80;7.00;;;;;;;;;;108380;1301;22854;-26
2022/08/23 02:19:49;;;;;;;8.30;7.10;;;;;;;;;;108356;1301;22466;-32
2022/08/23 02:22:15;;;;;;;7.60;6.50;;;;;;;;;;108355;1301;22350;-26
2022/08/23 02:24:42;;;;;;;9.60;5.80;;;;;;;;;;108357;1300;22426;-26
2022/08/23 02:27:08;;;;;;;8.10;7.30;;;;;;;;;;108331;1301;22383;-26
2022/08/23 02:29:34;;;;;;;15.30;7.60;;;;;;;;;;108206;1301;22554;-28
2022/08/23 02:32:00;;;;;;;6.50;5.00;;;;;;;;;;108330;1301;23308;-24
2022/08/23 02:34:26;;;;;;;6.90;6.30;;;;;;;;;;108263;1302;22417;-24
2022/08/23 02:36:52;;;;;;;5.80;5.40;;;;;;;;;;108346;1301;22541;-24
2022/08/23 02:39:17;;;;;;;10.30;7.00;;;;;;;;;;108289;1300;23368;-30
2022/08/23 02:41:44;;;;;;;7.00;5.60;;;;;;;;;;108300;1301;22531;-30
2022/08/23 02:44:10;;;;;;;11.00;7.10;;;;;;;;;;108323;1301;23327;-30
2022/08/23 02:46:36;;;;;;;8.10;7.30;;;;;;;;;;108333;1301;22456;-30
2022/08/23 02:49:01;;;;;;;7.90;5.80;;;;;;;;;;108334;1301;22384;-29
2022/08/23 02:51:26;;;;;;;6.10;5.00;;;;;;;;;;108321;1301;22686;-30
2022/08/23 02:53:52;;;;;;;8.00;7.00;;;;;;;;;;107579;1308;1002421;-30
2022/08/23 02:56:17;;;;;;;8.20;6.10;;;;;;;;;;108335;1301;23122;-30
2022/08/23 02:58:44;;;;;;;7.70;7.00;;;;;;;;;;108353;1301;22536;-24
2022/08/23 03:01:13;;;;;;;13.10;8.50;;;;;;;;;;108165;1301;22525;-30
2022/08/23 03:03:38;;;;;;;7.00;6.40;;;;;;;;;;108343;1301;22586;-24
2022/08/23 03:06:04;;;;;;;7.00;5.90;;;;;;;;;;108323;1301;22409;-30
2022/08/23 03:08:29;;;;;;;7.60;5.80;;;;;;;;;;108159;1301;22547;-30
2022/08/23 03:10:55;;;;;;;9.40;6.90;;;;;;;;;;107953;1308;22567;-24
2022/08/23 03:13:21;;;;;;;6.90;5.30;;;;;;;;;;108326;1303;23183;-30
2022/08/23 03:15:46;;;;;;;6.10;5.60;;;;;;;;;;108321;1300;22423;-24
2022/08/23 03:18:12;;;;;;;7.30;6.60;;;;;;;;;;108243;1308;23345;-30
2022/08/23 03:20:40;;;;;;;5.60;5.10;;;;;;;;;;108304;1301;23196;-24
2022/08/23 03:23:06;;;;;;;7.90;5.40;;;;;;;;;;108332;1301;22437;-30
2022/08/23 03:25:32;;;;;;;10.00;9.20;;;;;;;;;;108305;1308;22225;-29
2022/08/23 03:27:57;;;;;;;7.50;6.70;;;;;;;;;;108222;1308;23328;-29
2022/08/23 03:30:23;;;;;;;8.40;5.80;;;;;;;;;;108364;1301;22699;-24
2022/08/23 03:32:49;;;;;;;7.10;6.30;;;;;;;;;;108325;1301;23173;-24
2022/08/23 03:35:14;;;;;;;7.50;5.80;;;;;;;;;;108175;1301;22528;-23
2022/08/23 03:37:40;;;;;;;8.60;5.00;;;;;;;;;;108212;1302;23218;-30
2022/08/23 03:40:06;;;;;;;6.60;5.90;;;;;;;;;;108346;1301;22400;-30
2022/08/23 03:42:33;;;;;;;7.20;5.50;;;;;;;;;;108250;1302;23391;-24
2022/08/23 03:44:58;;;;;;;9.20;6.40;;;;;;;;;;108154;1302;22545;-30
2022/08/23 03:47:24;;;;;;;6.30;5.70;;;;;;;;;;108187;1308;22358;-24
2022/08/23 03:49:50;;;;;;;7.40;6.20;;;;;;;;;;108084;1301;22412;-24
2022/08/23 03:52:16;;;;;;;5.70;5.20;;;;;;;;;;108294;1301;22513;-30
2022/08/23 03:54:41;;;;;;;11.80;7.80;;;;;;;;;;108313;1301;22992;-30
2022/08/23 03:57:08;;;;;;;5.40;4.90;;;;;;;;;;108342;1301;23234;-30
2022/08/23 03:59:34;;;;;;;7.00;6.00;;;;;;;;;;108324;1301;22405;-30
2022/08/23 04:01:59;;;;;;;6.20;5.70;;;;;;;;;;108327;1301;22489;-30
2022/08/23 04:04:26;;;;;;;7.40;6.60;;;;;;;;;;108315;1301;22518;-23
2022/08/23 04:06:52;;;;;;;6.00;5.10;;;;;;;;;;108341;1300;23111;-30
2022/08/23 04:09:17;;;;;;;5.80;5.20;;;;;;;;;;108273;1301;23358;-23
2022/08/23 04:11:43;;;;;;;10.10;7.10;;;;;;;;;;108326;1301;23076;-29
2022/08/23 04:14:08;;;;;;;7.80;7.10;;;;;;;;;;108114;1302;23183;-30
2022/08/23 04:16:36;;;;;;;12.40;6.40;;;;;;;;;;108287;1302;22998;-24
2022/08/23 04:19:03;;;;;;;7.80;6.90;;;;;;;;;;108201;1308;22360;-30
2022/08/23 04:21:29;;;;;;;7.40;6.60;;;;;;;;;;108338;1301;23187;-29
2022/08/23 04:23:54;;;;;;;17.50;7.20;;;;;;;;;;108188;1302;22414;-30
2022/08/23 04:26:20;;;;;;;16.40;7.90;;;;;;;;;;108296;1308;23277;-24
2022/08/23 04:28:45;;;;;;;12.60;6.30;;;;;;;;;;108316;1301;22534;-30
2022/08/23 04:31:11;;;;;;;8.30;7.70;;;;;;;;;;108306;1300;22340;-30
2022/08/23 04:33:36;;;;;;;7.50;6.90;;;;;;;;;;108262;1301;22614;-30
2022/08/23 04:36:02;;;;;;;9.70;8.20;;;;;;;;;;108302;1308;22545;-24
2022/08/23 04:38:28;;;;;;;9.90;8.50;;;;;;;;;;108331;1301;23092;-28
2022/08/23 04:43:24;;;;;;;17.30;8.70;;;;;;;;;;108297;1301;23015;-30
2022/08/23 04:45:50;;;;;;;12.00;6.50;;;;;;;;;;108309;1301;22566;-29
2022/08/23 04:48:15;;;;;;;13.40;7.10;;;;;;;;;;107932;1308;22557;-30
2022/08/23 04:50:41;;;;;;;6.10;5.30;;;;;;;;;;108254;1301;23365;-24
2022/08/23 04:53:06;;;;;;;6.70;6.20;;;;;;;;;;108335;1301;23214;-30
2022/08/23 04:55:32;;;;;;;11.20;8.00;;;;;;;;;;108344;1301;23106;-30
2022/08/23 04:57:57;;;;;;;10.30;9.30;;;;;;;;;;108305;1300;23257;-30
2022/08/23 05:00:22;;;;;;;9.10;6.50;;;;;;;;;;108214;1301;22267;-24
2022/08/23 05:02:48;;;;;;;6.40;5.30;;;;;;;;;;108296;1301;23300;-29
2022/08/23 05:05:13;;;;;;;12.20;8.00;;;;;;;;;;108287;1300;23251;-24
2022/08/23 05:07:39;;;;;;;7.20;6.70;;;;;;;;;;108297;1301;23003;-30
2022/08/23 05:10:05;;;;;;;6.90;6.30;;;;;;;;;;107245;1301;23307;-30
2022/08/23 05:12:31;;;;;;;7.60;5.90;;;;;;;;;;108282;1308;22554;-30
2022/08/23 05:14:56;;;;;;;7.30;6.70;;;;;;;;;;108220;1303;22537;-24
2022/08/23 05:17:21;;;;;;;5.70;5.30;;;;;;;;;;108289;1301;23409;-30
2022/08/23 05:19:48;;;;;;;6.40;5.80;;;;;;;;;;108007;1301;22529;-24
2022/08/23 05:22:14;;;;;;;8.10;7.30;;;;;;;;;;108101;1303;23387;-24
2022/08/23 05:24:39;;;;;;;6.40;5.70;;;;;;;;;;108244;1308;23106;-30
2022/08/23 05:27:05;;;;;;;7.00;5.90;;;;;;;;;;108200;1301;25211;-24
2022/08/23 05:29:30;;;;;;;5.90;5.30;;;;;;;;;;108097;1301;23365;-31
2022/08/23 05:31:56;;;;;;;7.50;5.30;;;;;;;;;;108243;1302;22377;-30
2022/08/23 05:34:21;;;;;;;9.50;4.20;;;;;;;;;;107568;1308;698559;-30
2022/08/23 05:36:47;;;;;;;7.70;6.10;;;;;;;;;;108120;1303;23018;-23
2022/08/23 05:39:14;;;;;;;6.00;5.50;;;;;;;;;;108333;1301;22925;-24
2022/08/23 05:41:40;;;;;;;6.20;5.70;;;;;;;;;;107568;1301;1002370;-24
2022/08/23 05:44:07;;;;;;;6.70;6.10;;;;;;;;;;108333;1301;23277;-30
2022/08/23 05:46:33;;;;;;;5.70;5.30;;;;;;;;;;107547;1301;1002541;-30
2022/08/23 05:48:59;;;;;;;7.90;6.80;;;;;;;;;;107772;1300;22407;-31
2022/08/23 05:51:25;;;;;;;7.90;6.40;;;;;;;;;;108060;1308;22629;-25
2022/08/23 05:53:51;;;;;;;7.20;6.60;;;;;;;;;;108078;1308;23208;-24
2022/08/23 05:56:18;;;;;;;5.80;4.80;;;;;;;;;;108169;1300;22532;-31
2022/08/23 05:58:44;;;;;;;5.90;5.30;;;;;;;;;;108169;1303;23795;-24
2022/08/23 06:01:10;;;;;;;6.90;5.70;;;;;;;;;;108221;1301;23222;-30
2022/08/23 06:03:35;;;;;;;10.80;5.60;;;;;;;;;;108230;1301;22600;-29
2022/08/23 06:06:01;;;;;;;7.50;6.70;;;;;;;;;;108277;1301;23275;-30
2022/08/23 06:08:27;;;;;;;6.20;5.00;;;;;;;;;;108334;1301;22732;-30
2022/08/23 06:10:56;;;;;;;5.80;5.40;;;;;;;;;;108319;1300;22953;-24
2022/08/23 06:13:21;;;;;;;6.70;6.10;;;;;;;;;;108297;1301;22537;-24
2022/08/23 06:15:47;;;;;;;8.00;6.40;;;;;;;;;;107749;1301;23258;-25
2022/08/23 06:18:13;;;;;;;8.70;6.10;;;;;;;;;;108095;1304;23169;-26
2022/08/23 06:20:39;;;;;;;4.90;4.50;;;;;;;;;;107673;1308;22588;-25
2022/08/23 06:23:05;;;;;;;4.70;4.30;;;;;;;;;;108307;1301;23798;-24
2022/08/23 06:25:31;;;;;;;7.50;5.10;;;;;;;;;;108314;1301;22533;-23
2022/08/23 06:27:57;;;;;;;4.60;4.00;;;;;;;;;;108284;1301;23145;-23
2022/08/23 06:30:22;;;;;;;4.80;4.30;;;;;;;;;;108306;1301;23095;-24
2022/08/23 06:32:48;;;;;;;6.00;5.50;;;;;;;;;;108317;1300;23145;-29
2022/08/23 06:35:14;;;;;;;5.50;4.90;;;;;;;;;;108290;1301;22537;-29
2022/08/23 06:37:40;;;;;;;5.30;4.80;;;;;;;;;;108334;1305;23249;-24
2022/08/23 06:40:06;;;;;;;4.60;4.20;;;;;;;;;;108249;1301;22451;-30
2022/08/23 06:42:31;;;;;;;5.90;5.30;;;;;;;;;;108332;1308;22445;-24
2022/08/23 06:44:58;;;;;;;5.20;3.30;;;;;;;;;;108314;1301;22399;-29
2022/08/23 06:47:24;;;;;;;5.70;5.20;;;;;;;;;;108288;1301;22546;-30
2022/08/23 06:49:49;;;;;;;5.60;5.00;;;;;;;;;;108330;1301;22548;-23
2022/08/23 06:52:15;;;;;;;5.70;5.20;;;;;;;;;;108337;1308;23285;-29
2022/08/23 06:54:43;;;;;;;4.50;3.90;;;;;;;;;;107832;1301;22549;-29
2022/08/23 06:57:08;;;;;;;8.20;6.50;;;;;;;;;;108195;1303;23232;-23
2022/08/23 06:59:33;;;;;;;6.90;6.30;;;;;;;;;;108304;1301;23246;-29
2022/08/23 07:02:00;;;;;;;6.60;5.90;;;;;;;;;;108313;1308;23214;-29
2022/08/23 07:04:27;;;;;;;6.00;5.40;;;;;;;;;;107747;1300;22527;-29
2022/08/23 07:06:53;;;;;;;11.70;5.90;;;;;;;;;;108328;1301;23289;-28
2022/08/23 07:09:18;;;;;;;6.90;5.20;;;;;;;;;;108330;1301;23379;-23
2022/08/23 07:11:44;;;;;;;7.40;6.40;;;;;;;;;;108241;1301;22777;-29
2022/08/23 07:14:10;;;;;;;7.30;6.30;;;;;;;;;;108316;1285;23079;-29
2022/08/23 07:16:37;;;;;;;10.90;5.00;;;;;;;;;;108300;1301;23170;-29
2022/08/23 07:19:03;;;;;;;6.50;5.90;;;;;;;;;;108252;1308;23115;-29
2022/08/23 07:21:28;;;;;;;5.90;5.40;;;;;;;;;;108291;1300;22957;-24
2022/08/23 07:23:54;;;;;;;5.30;4.80;;;;;;;;;;108359;1300;22472;-30
2022/08/23 07:26:20;;;;;;;7.00;6.20;;;;;;;;;;108346;1301;22474;-31
2022/08/23 07:28:46;;;;;;;7.10;4.80;;;;;;;;;;108313;1301;22560;-23
2022/08/23 07:31:14;;;;;;;4.10;3.70;;;;;;;;;;107845;1308;22519;-23
2022/08/23 07:33:39;;;;;;;4.20;3.90;;;;;;;;;;108217;1301;23471;-26
2022/08/23 07:36:05;;;;;;;5.00;4.40;;;;;;;;;;108053;1305;22436;-30
2022/08/23 07:38:31;;;;;;;4.90;4.10;;;;;;;;;;108274;1301;22922;-24
2022/08/23 07:40:57;;;;;;;4.90;4.10;;;;;;;;;;108268;1301;23302;-30
2022/08/23 07:43:23;;;;;;;4.90;4.40;;;;;;;;;;108289;1300;22395;-30
2022/08/23 07:45:49;;;;;;;5.20;4.70;;;;;;;;;;108272;1308;23337;-30
2022/08/23 07:48:14;;;;;;;6.70;4.70;;;;;;;;;;108176;1301;23569;-30
2022/08/23 07:50:40;;;;;;;5.00;4.70;;;;;;;;;;107972;1308;22405;-30
2022/08/23 07:53:06;;;;;;;4.00;3.70;;;;;;;;;;108314;1300;23661;-24
2022/08/23 07:55:31;;;;;;;6.20;5.10;;;;;;;;;;108064;1301;22515;-30
2022/08/23 07:57:57;;;;;;;8.50;5.00;;;;;;;;;;108340;1293;23344;-25
2022/08/23 08:00:22;;;;;;;5.90;5.40;;;;;;;;;;108260;1300;22508;-31
2022/08/23 08:02:48;;;;;;;5.20;3.90;;;;;;;;;;108213;1301;22111;-31
2022/08/23 08:05:14;;;;;;;5.30;4.80;;;;;;;;;;108195;1300;23049;-31
2022/08/23 08:07:39;;;;;;;9.10;4.40;;;;;;;;;;108343;1301;22510;-25
2022/08/23 08:10:05;;;;;;;6.60;4.60;;;;;;;;;;108292;1301;23263;-31
2022/08/23 08:12:31;;;;;;;3.80;3.50;;;;;;;;;;108327;1300;22530;-26
2022/08/23 08:14:57;;;;;;;4.90;3.10;;;;;;;;;;108245;1300;23167;-31
2022/08/23 08:17:23;;;;;;;3.10;2.80;;;;;;;;;;108284;1301;23306;-31
2022/08/23 08:19:48;;;;;;;2.60;2.40;;;;;;;;;;108264;1301;23213;-31
2022/08/23 08:22:14;;;;;;;2.70;2.50;;;;;;;;;;108190;1302;23318;-31
2022/08/23 08:24:39;;;;;;;3.60;3.10;;;;;;;;;;108342;1300;22556;-31
2022/08/23 08:27:06;;;;;;;2.80;2.60;;;;;;;;;;108341;1301;25372;-31
2022/08/23 08:29:31;;;;;;;3.70;3.00;;;;;;;;;;107987;1308;25217;-26
2022/08/23 08:31:57;;;;;;;3.40;3.10;;;;;;;;;;107719;1301;22558;-31
2022/08/23 08:34:22;;;;;;;5.80;4.00;;;;;;;;;;108251;1308;23367;-24
2022/08/23 08:36:49;;;;;;;3.50;3.20;;;;;;;;;;108274;1301;23209;-29
2022/08/23 08:39:17;;;;;;;2.90;2.50;;;;;;;;;;108329;1301;23181;-23
2022/08/23 08:41:47;;;;;;;3.30;2.90;;;;;;;;;;108282;1301;23371;-25
2022/08/23 08:44:16;;;;;;;3.30;3.00;;;;;;;;;;108050;1301;22530;-29
2022/08/23 08:46:44;;;;;;;4.10;3.10;;;;;;;;;;107923;1301;23289;-29
2022/08/23 08:49:13;;;;;;;5.00;4.40;;;;;;;;;;108311;1301;23096;-23
2022/08/23 08:51:41;;;;;;;3.60;3.30;;;;;;;;;;108301;1308;23370;-23
2022/08/23 08:54:08;;;;;;;3.50;3.20;;;;;;;;;;108291;1301;23184;-24
2022/08/23 08:56:35;;;;;;;11.90;4.60;;;;;;;;;;108295;1301;22756;-29
2022/08/23 08:59:02;;;;;;;5.60;3.60;;;;;;;;;;108278;1301;23195;-23
2022/08/23 09:01:28;;;;;;;4.20;3.80;;;;;;;;;;108152;1301;23225;-26
2022/08/23 09:03:54;;;;;;;3.30;3.00;;;;;;;;;;108267;1301;22531;-24
2022/08/23 09:06:22;;;;;;;4.70;3.80;;;;;;;;;;107811;1308;25315;-29
2022/08/23 09:08:51;;;;;;;3.90;3.60;;;;;;;;;;108208;1301;23411;-29
2022/08/23 09:11:23;;;;;;;5.10;4.30;;;;;;;;;;108333;1301;23276;-23
2022/08/23 09:13:54;;;;;;;3.90;3.50;;;;;;;;;;108194;1301;22537;-29
2022/08/23 09:16:24;;;;;;;4.80;4.30;;;;;;;;;;108341;1301;22538;-29
2022/08/23 09:18:50;;;;;;;4.90;4.50;;;;;;;;;;108335;1308;22640;-26
2022/08/23 09:21:16;;;;;;;6.50;4.80;;;;;;;;;;108327;1292;22634;-24
2022/08/23 09:23:43;;;;;;;5.50;4.80;;;;;;;;;;108272;1301;22543;-28
2022/08/23 09:26:12;;;;;;;4.90;4.40;;;;;;;;;;108273;1301;22822;-24
2022/08/23 09:28:37;;;;;;;5.90;5.10;;;;;;;;;;108132;1288;23357;-30
2022/08/23 09:31:04;;;;;;;4.50;4.10;;;;;;;;;;108332;1308;22487;-30
2022/08/23 09:33:37;;;;;;;4.20;3.30;;;;;;;;;;108135;1285;23595;-24
2022/08/23 09:36:04;;;;;;;6.40;4.60;;;;;;;;;;108316;1301;23239;-24
2022/08/23 09:38:29;;;;;;;6.90;5.50;;;;;;;;;;107785;1304;22843;-25
2022/08/23 09:40:55;;;;;;;7.40;5.10;;;;;;;;;;108270;1308;22519;-30
2022/08/23 09:43:23;;;;;;;6.20;5.60;;;;;;;;;;108332;1301;22542;-24
2022/08/23 09:45:48;;;;;;;7.10;5.40;;;;;;;;;;108326;1301;22556;-30
2022/08/23 09:48:18;;;;;;;5.10;4.70;;;;;;;;;;108347;1301;22397;-31
2022/08/23 09:50:48;;;;;;;5.60;5.20;;;;;;;;;;108340;1301;23303;-23
2022/08/23 09:53:14;;;;;;;5.70;5.30;;;;;;;;;;108249;1308;22682;-29
2022/08/23 09:55:41;;;;;;;6.10;5.40;;;;;;;;;;108146;1302;23399;-24
2022/08/23 09:58:10;;;;;;;8.30;5.30;;;;;;;;;;108303;1301;22420;-29
2022/08/23 10:00:35;;;;;;;7.60;6.20;;;;;;;;;;108286;1301;22465;-24
2022/08/23 10:03:04;;;;;;;4.90;4.40;;;;;;;;;;108196;1301;25317;-23
2022/08/23 10:05:33;;;;;;;7.50;6.80;;;;;;;;;;108055;1293;23335;-29
2022/08/23 10:07:59;;;;;;;5.90;4.60;;;;;;;;;;108187;1308;22522;-25
2022/08/23 10:10:28;;;;;;;6.30;5.70;;;;;;;;;;108269;1308;22538;-23
2022/08/23 10:12:54;;;;;;;8.90;6.90;;;;;;;;;;108229;1302;22973;-29
2022/08/23 10:15:21;;;;;;;7.70;6.10;;;;;;;;;;108325;1301;23242;-29
2022/08/23 10:17:51;;;;;;;9.90;8.80;;;;;;;;;;108241;1301;22785;-29
2022/08/23 10:20:20;;;;;;;6.50;5.70;;;;;;;;;;108313;1300;22531;-23
2022/08/23 10:22:49;;;;;;;9.30;8.30;;;;;;;;;;108263;1308;23381;-23
2022/08/23 10:25:18;;;;;;;10.60;7.30;;;;;;;;;;108305;1301;23303;-23
2022/08/23 10:30:15;;;;;;;9.90;7.40;;;;;;;;;;108338;1302;22969;-29
2022/08/23 10:32:45;;;;;;;10.00;6.40;;;;;;;;;;108048;1304;23143;-32
2022/08/23 10:35:10;;;;;;;10.00;9.10;;;;;;;;;;108266;1302;22544;-23
2022/08/23 10:37:36;;;;;;;7.40;6.70;;;;;;;;;;108185;1308;22527;-29
2022/08/23 10:40:05;;;;;;;11.90;7.80;;;;;;;;;;107908;1303;23092;-23
2022/08/23 10:42:34;;;;;;;10.00;8.60;;;;;;;;;;108314;1301;22700;-29
2022/08/23 10:45:03;;;;;;;7.10;6.10;;;;;;;;;;108322;1301;23301;-29
2022/08/23 10:47:32;;;;;;;13.50;7.80;;;;;;;;;;108316;1301;22449;-29
2022/08/23 10:49:59;;;;;;;10.10;7.50;;;;;;;;;;108343;1302;22603;-29
2022/08/23 10:52:28;;;;;;;8.90;7.40;;;;;;;;;;108326;1301;23274;-24
2022/08/23 10:54:59;;;;;;;8.70;7.90;;;;;;;;;;108237;1301;22993;-23
2022/08/23 10:57:29;;;;;;;8.20;6.90;;;;;;;;;;108303;1308;22453;-29
2022/08/23 10:59:54;;;;;;;8.90;7.70;;;;;;;;;;108308;1308;22711;-23
2022/08/23 11:02:24;;;;;;;10.50;8.20;;;;;;;;;;108130;1308;23248;-23
2022/08/23 11:04:49;;;;;;;12.20;9.60;;;;;;;;;;107934;1304;22455;-23
2022/08/23 11:07:17;;;;;;;13.50;8.30;;;;;;;;;;108337;1300;23628;-29
2022/08/23 11:09:46;;;;;;;10.00;6.90;;;;;;;;;;108288;1301;23185;-24
2022/08/23 11:12:15;;;;;;;9.00;8.00;;;;;;;;;;108309;1307;22530;-29
2022/08/23 11:14:43;;;;;;;9.40;7.90;;;;;;;;;;108345;1302;23376;-29
2022/08/23 11:17:10;;;;;;;12.20;9.40;;;;;;;;;;108288;1301;22531;-29
2022/08/23 11:19:39;;;;;;;10.40;9.20;;;;;;;;;;108335;1301;22541;-29
2022/08/23 11:22:08;;;;;;;7.10;6.00;;;;;;;;;;108325;1301;23277;-23
2022/08/23 11:24:48;;;;;;;11.50;7.20;;;;;;;;;;108258;1300;22739;-29
2022/08/23 11:27:23;;;;;;;9.60;8.00;;;;;;;;;;108197;1304;23190;-29
2022/08/23 11:29:49;;;;;;;9.50;7.30;;;;;;;;;;108339;1301;22574;-29
2022/08/23 11:32:18;;;;;;;12.40;10.40;;;;;;;;;;108169;1300;23215;-23
2022/08/23 11:34:47;;;;;;;12.40;9.50;;;;;;;;;;108318;1301;22551;-29
2022/08/23 11:37:16;;;;;;;13.20;10.30;;;;;;;;;;108320;1301;25258;-23
2022/08/23 11:40:01;;;;;;;10.30;7.70;;;;;;;;;;108327;1301;22537;-29
2022/08/23 11:42:46;;;;;;;10.00;7.00;;;;;;;;;;108308;1301;23080;-29
2022/08/23 11:45:19;;;;;;;13.90;9.00;;;;;;;;;;108266;1301;22533;-29
2022/08/23 11:47:52;;;;;;;13.60;8.10;;;;;;;;;;107996;1308;23420;-28
2022/08/23 11:50:23;;;;;;;11.80;9.10;;;;;;;;;;108201;1308;22472;-29
2022/08/23 11:52:54;;;;;;;9.90;8.80;;;;;;;;;;108326;1288;23394;-23
2022/08/23 11:55:24;;;;;;;12.80;8.30;;;;;;;;;;108146;1301;22546;-28
2022/08/23 11:57:53;;;;;;;7.40;6.50;;;;;;;;;;108108;1301;23243;-23
2022/08/23 12:00:20;;;;;;;11.90;8.90;;;;;;;;;;108273;1308;22626;-28
2022/08/23 12:02:49;;;;;;;17.00;7.10;;;;;;;;;;108228;1301;22580;-31
2022/08/23 12:05:20;;;;;;;13.00;8.60;;;;;;;;;;108304;1301;23417;-25
2022/08/23 12:07:50;;;;;;;11.80;9.40;;;;;;;;;;108336;1301;22417;-25
2022/08/23 12:10:20;;;;;;;14.20;10.50;;;;;;;;;;108321;1301;22529;-31
2022/08/23 12:12:46;;;;;;;13.30;10.00;;;;;;;;;;108311;1300;22582;-26
2022/08/23 12:15:12;;;;;;;13.80;9.00;;;;;;;;;;108319;1301;23370;-25
2022/08/23 12:17:54;;;;;;;11.20;9.70;;;;;;;;;;108296;1301;23250;-25
2022/08/23 12:20:23;;;;;;;10.20;8.50;;;;;;;;;;108034;1301;22541;-29
2022/08/23 12:22:52;;;;;;;16.90;11.30;;;;;;;;;;108342;1301;22691;-24
2022/08/23 12:25:19;;;;;;;12.90;11.30;;;;;;;;;;108272;1308;23308;-23
2022/08/23 12:27:45;;;;;;;11.10;9.70;;;;;;;;;;108134;1308;22567;-28
2022/08/23 12:30:14;;;;;;;11.10;10.10;;;;;;;;;;108301;1308;22548;-28
2022/08/23 12:32:43;;;;;;;18.90;11.10;;;;;;;;;;108158;1304;25201;-29
2022/08/23 12:35:12;;;;;;;12.20;11.00;;;;;;;;;;108271;1301;22536;-29
2022/08/23 12:37:42;;;;;;;11.10;10.10;;;;;;;;;;108264;1308;22535;-29
2022/08/23 12:40:11;;;;;;;10.30;8.40;;;;;;;;;;108048;1308;23336;-23
2022/08/23 12:42:37;;;;;;;10.30;9.30;;;;;;;;;;108138;1304;23133;-23
2022/08/23 12:45:05;;;;;;;20.80;9.20;;;;;;;;;;108321;1308;22549;-29
2022/08/23 12:47:31;;;;;;;16.50;8.90;;;;;;;;;;108341;1301;25439;-29
2022/08/23 12:50:00;;;;;;;10.90;9.80;;;;;;;;;;107597;1301;1002303;-23
2022/08/23 12:52:28;;;;;;;12.70;8.40;;;;;;;;;;108274;1301;23233;-29
2022/08/23 12:54:56;;;;;;;11.10;10.00;;;;;;;;;;108345;1301;23396;-29
2022/08/23 12:57:28;;;;;;;13.40;7.20;;;;;;;;;;108258;1301;22439;-23
2022/08/23 12:59:56;;;;;;;9.70;7.50;;;;;;;;;;108162;1301;22540;-31
2022/08/23 13:02:23;;;;;;;9.00;8.00;;;;;;;;;;108146;1303;23191;-23
2022/08/23 13:04:49;;;;;;;11.30;9.40;;;;;;;;;;108364;1301;22553;-29
2022/08/23 13:07:16;;;;;;;12.00;9.70;;;;;;;;;;108273;1301;22533;-23
2022/08/23 13:09:42;;;;;;;9.30;7.50;;;;;;;;;;108259;1308;23212;-29
2022/08/23 13:12:08;;;;;;;12.50;9.30;;;;;;;;;;108255;1301;22393;-29
2022/08/23 13:14:34;;;;;;;8.80;8.00;;;;;;;;;;108361;1308;22086;-24
2022/08/23 13:17:03;;;;;;;8.40;7.30;;;;;;;;;;108320;1301;23195;-23
2022/08/23 13:19:29;;;;;;;9.90;7.30;;;;;;;;;;108153;1308;23295;-23
2022/08/23 13:21:58;;;;;;;8.00;7.30;;;;;;;;;;108199;1301;22527;-23
2022/08/23 13:24:27;;;;;;;12.40;7.80;;;;;;;;;;108296;1301;22569;-23
2022/08/23 13:26:52;;;;;;;13.90;6.60;;;;;;;;;;108338;1301;22980;-23
2022/08/23 13:29:19;;;;;;;6.70;6.10;;;;;;;;;;108324;1301;23259;-29
2022/08/23 13:31:47;;;;;;;7.50;5.50;;;;;;;;;;108348;1301;22413;-23
2022/08/23 13:34:16;;;;;;;10.10;6.50;;;;;;;;;;107881;1301;612942;-23
2022/08/23 13:36:42;;;;;;;9.90;8.60;;;;;;;;;;107618;1308;22561;-23
2022/08/23 13:39:08;;;;;;;8.40;7.60;;;;;;;;;;107704;1298;22209;-28
2022/08/23 13:41:34;;;;;;;11.20;7.60;;;;;;;;;;108356;1301;22551;-29
2022/08/23 13:44:03;;;;;;;7.20;5.80;;;;;;;;;;107498;1302;1002598;-24
2022/08/23 13:46:28;;;;;;;11.80;8.80;;;;;;;;;;108161;1303;23288;-24
2022/08/23 13:48:57;;;;;;;5.40;5.00;;;;;;;;;;108315;1308;22358;-29
2022/08/23 13:51:24;;;;;;;8.30;6.70;;;;;;;;;;108370;1300;22539;-29
2022/08/23 13:53:51;;;;;;;8.80;7.20;;;;;;;;;;108338;1301;23108;-23
2022/08/23 13:56:16;;;;;;;8.30;7.40;;;;;;;;;;108183;1303;22564;-29
2022/08/23 13:58:50;;;;;;;8.30;6.70;;;;;;;;;;107521;1301;1002339;-29
2022/08/23 14:01:16;;;;;;;5.80;4.80;;;;;;;;;;108380;1301;23139;-29
2022/08/23 14:03:42;;;;;;;8.00;7.20;;;;;;;;;;108215;1303;22533;-29
2022/08/23 14:06:07;;;;;;;6.90;5.80;;;;;;;;;;108373;1302;22398;-29
2022/08/23 14:08:32;;;;;;;5.60;4.70;;;;;;;;;;108355;1300;23376;-29
2022/08/23 14:10:58;;;;;;;8.00;7.20;;;;;;;;;;108353;1301;22958;-24
2022/08/23 14:13:23;;;;;;;8.20;7.20;;;;;;;;;;108365;1301;22557;-29
2022/08/23 14:15:49;;;;;;;8.10;6.10;;;;;;;;;;108404;1300;23226;-23
2022/08/23 14:18:14;;;;;;;6.70;6.10;;;;;;;;;;108336;1300;23928;-23
2022/08/23 14:20:40;;;;;;;7.60;6.70;;;;;;;;;;108060;1301;22546;-29
2022/08/23 14:23:05;;;;;;;7.70;7.00;;;;;;;;;;108251;1301;23210;-29
2022/08/23 14:25:31;;;;;;;7.70;5.70;;;;;;;;;;107449;1308;22543;-23
2022/08/23 14:27:57;;;;;;;8.50;7.50;;;;;;;;;;108329;1301;22568;-29
2022/08/23 14:30:25;;;;;;;8.30;7.30;;;;;;;;;;108357;1300;22540;-29
2022/08/23 14:32:51;;;;;;;13.80;8.40;;;;;;;;;;108320;1308;22595;-23